Time;durP1;ratioP1;P1;durP2;ratioP2;P2;SDS_P1;SDS_P2;PMS_P1;PMS_P2;Temp;Humidity;BMP_temperature;BMP_pressure;BME280_temperature;BME280_humidity;BME280_pressure;Samples;Min_cycle;Max_cycle;Signal;HPM_P1;HPM_P2
2022/05/19 00:00:15;;;;;;;3.95;3.63;;;;;;;;;;4862591;29;20044;-77
2022/05/19 00:02:41;;;;;;;4.32;4.03;;;;;;;;;;4894274;29;20044;-77
2022/05/19 00:05:07;;;;;;;3.78;3.40;;;;;;;;;;4900728;29;20040;-77
2022/05/19 00:07:33;;;;;;;6.55;3.53;;;;;;;;;;4910530;29;20497;-77
2022/05/19 00:09:59;;;;;;;6.60;4.43;;;;;;;;;;4900070;29;20516;-75
2022/05/19 00:12:24;;;;;;;4.13;3.70;;;;;;;;;;4913080;29;20040;-77
2022/05/19 00:14:51;;;;;;;4.05;3.22;;;;;;;;;;4909695;29;20109;-77
2022/05/19 00:17:16;;;;;;;5.15;3.90;;;;;;;;;;4908125;29;20519;-76
2022/05/19 00:19:42;;;;;;;4.75;3.60;;;;;;;;;;4912470;29;20036;-78
2022/05/19 00:22:08;;;;;;;5.03;4.30;;;;;;;;;;4899759;29;20131;-76
2022/05/19 00:24:34;;;;;;;6.30;3.60;;;;;;;;;;4877799;29;20045;-76
2022/05/19 00:26:59;;;;;;;6.10;4.20;;;;;;;;;;4908854;29;20045;-78
2022/05/19 00:29:26;;;;;;;5.95;3.35;;;;;;;;;;4878250;29;20040;-76
2022/05/19 00:31:52;;;;;;;3.70;3.40;;;;;;;;;;4895181;29;20527;-77
2022/05/19 00:34:18;;;;;;;3.20;3.00;;;;;;;;;;4894886;29;20116;-77
2022/05/19 00:36:45;;;;;;;3.60;3.30;;;;;;;;;;4894342;29;20048;-76
2022/05/19 00:39:12;;;;;;;3.47;3.28;;;;;;;;;;4904998;29;20047;-78
2022/05/19 00:41:44;;;;;;;4.45;3.85;;;;;;;;;;4910989;29;20108;-77
2022/05/19 00:44:10;;;;;;;7.72;3.65;;;;;;;;;;4891304;29;20100;-79
2022/05/19 00:46:42;;;;;;;4.00;3.25;;;;;;;;;;4924744;29;20040;-79
2022/05/19 00:49:16;;;;;;;3.72;3.35;;;;;;;;;;4875609;29;20435;-79
2022/05/19 00:51:42;;;;;;;3.33;3.13;;;;;;;;;;4904661;29;20052;-79
2022/05/19 00:54:09;;;;;;;4.63;3.40;;;;;;;;;;4894146;29;20127;-79
2022/05/19 00:56:40;;;;;;;6.43;3.58;;;;;;;;;;4876965;29;20523;-78
2022/05/19 00:59:07;;;;;;;9.05;3.40;;;;;;;;;;4877197;29;20040;-79
2022/05/19 01:01:33;;;;;;;4.13;3.17;;;;;;;;;;4898048;29;20070;-79
2022/05/19 01:04:01;;;;;;;3.83;3.53;;;;;;;;;;4896026;29;20127;-79
2022/05/19 01:06:27;;;;;;;3.55;3.25;;;;;;;;;;4912202;29;20151;-79
2022/05/19 01:08:57;;;;;;;3.63;3.42;;;;;;;;;;4912104;29;20127;-80
2022/05/19 01:11:23;;;;;;;5.00;3.75;;;;;;;;;;4880277;29;20051;-78
2022/05/19 01:13:51;;;;;;;4.75;3.45;;;;;;;;;;4895415;29;20044;-79
2022/05/19 01:16:17;;;;;;;3.85;3.55;;;;;;;;;;4912565;29;20391;-79
2022/05/19 01:18:43;;;;;;;3.67;3.25;;;;;;;;;;4912356;29;20052;-79
2022/05/19 01:21:09;;;;;;;4.70;3.47;;;;;;;;;;4885317;29;20072;-79
2022/05/19 01:23:53;;;;;;;6.97;3.72;;;;;;;;;;4906250;29;20048;-79
2022/05/19 01:26:22;;;;;;;4.70;3.70;;;;;;;;;;4912849;29;20708;-79
2022/05/19 01:28:48;;;;;;;6.93;3.00;;;;;;;;;;4912477;29;20036;-80
2022/05/19 01:31:35;;;;;;;3.40;3.20;;;;;;;;;;4912608;29;20515;-78
2022/05/19 01:34:02;;;;;;;6.32;3.70;;;;;;;;;;4895592;29;20657;-79
2022/05/19 01:36:28;;;;;;;3.45;3.20;;;;;;;;;;4895519;29;20143;-79
2022/05/19 01:39:01;;;;;;;3.78;3.47;;;;;;;;;;4912472;29;20243;-79
2022/05/19 01:41:55;;;;;;;4.35;3.38;;;;;;;;;;4912397;29;20070;-79
2022/05/19 01:44:39;;;;;;;4.95;3.90;;;;;;;;;;4912351;29;20040;-78
2022/05/19 01:47:07;;;;;;;3.35;3.10;;;;;;;;;;4912551;29;20047;-78
2022/05/19 01:49:39;;;;;;;5.80;3.55;;;;;;;;;;4912130;29;20414;-79
2022/05/19 01:52:11;;;;;;;5.28;3.60;;;;;;;;;;4879819;29;20095;-79
2022/05/19 01:54:52;;;;;;;4.90;3.50;;;;;;;;;;4911876;29;20070;-78
2022/05/19 01:57:18;;;;;;;;;;;;;;;;;;4912765;29;20063;-78
2022/05/19 01:59:56;;;;;;;2.70;2.60;;;;;;;;;;4912173;29;19915;-79
2022/05/19 02:02:27;;;;;;;3.60;3.13;;;;;;;;;;4912446;29;20182;-79
2022/05/19 02:05:02;;;;;;;4.18;3.40;;;;;;;;;;4910923;29;20514;-80
2022/05/19 02:07:29;;;;;;;3.67;3.20;;;;;;;;;;4911775;29;20044;-80
2022/05/19 02:09:56;;;;;;;3.00;2.80;;;;;;;;;;4904870;29;20515;-79
2022/05/19 02:12:22;;;;;;;3.85;3.00;;;;;;;;;;4912314;29;20515;-79
2022/05/19 02:14:49;;;;;;;5.82;3.25;;;;;;;;;;4911814;29;20064;-79
2022/05/19 02:17:15;;;;;;;7.63;2.38;;;;;;;;;;4895324;29;20097;-78
2022/05/19 02:19:42;;;;;;;3.17;2.90;;;;;;;;;;4893846;29;20044;-79
2022/05/19 02:22:10;;;;;;;5.82;3.15;;;;;;;;;;4896289;29;20041;-79
2022/05/19 02:24:37;;;;;;;2.70;2.60;;;;;;;;;;4864094;29;20050;-78
2022/05/19 02:27:21;;;;;;;4.63;2.80;;;;;;;;;;4879875;29;20411;-80
2022/05/19 02:29:47;;;;;;;2.83;2.63;;;;;;;;;;4896118;29;20052;-79
2022/05/19 02:32:13;;;;;;;2.83;2.63;;;;;;;;;;4913114;29;20048;-79
2022/05/19 02:34:39;;;;;;;5.32;2.90;;;;;;;;;;4914896;29;20051;-79
2022/05/19 02:37:05;;;;;;;3.20;2.40;;;;;;;;;;4915122;29;20059;-79
2022/05/19 02:39:31;;;;;;;3.38;3.08;;;;;;;;;;4914876;29;20044;-78
2022/05/19 02:41:57;;;;;;;8.23;2.80;;;;;;;;;;4910746;29;20045;-78
2022/05/19 02:44:23;;;;;;;3.50;2.78;;;;;;;;;;4896195;29;20048;-79
2022/05/19 02:46:49;;;;;;;2.67;2.58;;;;;;;;;;4895978;29;20040;-79
2022/05/19 02:49:15;;;;;;;2.95;2.50;;;;;;;;;;4896051;29;20419;-78
2022/05/19 02:51:41;;;;;;;2.90;2.70;;;;;;;;;;4879347;29;20072;-79
2022/05/19 02:54:07;;;;;;;2.60;2.50;;;;;;;;;;4896192;29;20091;-80
2022/05/19 02:56:33;;;;;;;2.20;2.10;;;;;;;;;;4897706;29;20140;-80
2022/05/19 02:58:59;;;;;;;3.08;2.55;;;;;;;;;;4897704;29;20044;-79
2022/05/19 03:01:25;;;;;;;3.10;2.83;;;;;;;;;;4898576;29;20123;-79
2022/05/19 03:03:51;;;;;;;3.03;2.83;;;;;;;;;;4895197;29;20069;-78
2022/05/19 03:06:19;;;;;;;2.53;2.30;;;;;;;;;;4882659;29;20498;-77
2022/05/19 03:08:45;;;;;;;2.00;1.90;;;;;;;;;;4897533;29;20063;-80
2022/05/19 03:11:11;;;;;;;2.95;2.75;;;;;;;;;;4876281;29;20040;-80
2022/05/19 03:13:37;;;;;;;3.30;2.88;;;;;;;;;;4916795;29;20142;-80
2022/05/19 03:16:07;;;;;;;3.05;2.55;;;;;;;;;;4917262;29;20131;-80
2022/05/19 03:18:33;;;;;;;5.97;2.72;;;;;;;;;;4916753;29;20044;-79
2022/05/19 03:20:59;;;;;;;2.80;2.60;;;;;;;;;;4916702;29;20047;-79
2022/05/19 03:23:25;;;;;;;2.63;2.40;;;;;;;;;;4917500;29;20048;-80
2022/05/19 03:25:51;;;;;;;3.00;2.67;;;;;;;;;;4884310;29;20597;-80
2022/05/19 03:28:17;;;;;;;2.58;2.47;;;;;;;;;;4918029;29;20146;-78
2022/05/19 03:30:43;;;;;;;6.20;2.80;;;;;;;;;;4908723;29;20099;-79
2022/05/19 03:33:09;;;;;;;3.10;2.90;;;;;;;;;;4905508;29;20122;-78
2022/05/19 03:35:35;;;;;;;2.25;2.15;;;;;;;;;;4900509;29;20048;-77
2022/05/19 03:38:01;;;;;;;2.63;2.20;;;;;;;;;;4919715;29;20115;-79
2022/05/19 03:40:27;;;;;;;2.22;2.13;;;;;;;;;;4917619;29;20044;-79
2022/05/19 03:42:52;;;;;;;3.05;2.78;;;;;;;;;;4914158;29;20099;-79
2022/05/19 03:45:19;;;;;;;4.05;2.40;;;;;;;;;;4914217;29;20044;-79
2022/05/19 03:47:45;;;;;;;2.28;2.17;;;;;;;;;;4913764;29;20540;-78
2022/05/19 03:50:10;;;;;;;2.40;2.30;;;;;;;;;;4914201;29;20040;-79
2022/05/19 03:52:38;;;;;;;4.18;3.28;;;;;;;;;;4913829;29;20278;-78
2022/05/19 03:55:04;;;;;;;2.60;2.40;;;;;;;;;;4913632;29;20037;-80
2022/05/19 03:57:30;;;;;;;2.42;2.33;;;;;;;;;;4913566;29;20122;-79
2022/05/19 03:59:56;;;;;;;2.08;1.77;;;;;;;;;;4896400;29;20495;-78
2022/05/19 04:02:22;;;;;;;2.85;2.70;;;;;;;;;;4913679;29;20060;-78
2022/05/19 04:04:48;;;;;;;5.30;2.55;;;;;;;;;;4896201;29;20044;-78
2022/05/19 04:07:14;;;;;;;2.60;2.40;;;;;;;;;;4913402;29;20062;-79
2022/05/19 04:09:40;;;;;;;3.40;2.60;;;;;;;;;;4896375;29;20122;-79
2022/05/19 04:12:06;;;;;;;2.80;2.60;;;;;;;;;;4913582;29;20109;-79
2022/05/19 04:14:32;;;;;;;3.83;2.38;;;;;;;;;;4913313;29;20098;-78
2022/05/19 04:16:57;;;;;;;2.88;2.55;;;;;;;;;;4896215;29;20155;-80
2022/05/19 04:19:23;;;;;;;2.80;2.60;;;;;;;;;;4913133;29;20411;-78
2022/05/19 04:21:50;;;;;;;2.28;2.15;;;;;;;;;;4913055;29;20044;-79
2022/05/19 04:24:16;;;;;;;3.25;2.80;;;;;;;;;;4913198;29;20067;-78
2022/05/19 04:26:42;;;;;;;2.60;2.40;;;;;;;;;;4914144;29;20051;-79
2022/05/19 04:29:08;;;;;;;5.45;2.83;;;;;;;;;;4914407;29;20055;-79
2022/05/19 04:31:34;;;;;;;5.53;2.63;;;;;;;;;;4914511;29;20048;-79
2022/05/19 04:34:00;;;;;;;11.85;2.13;;;;;;;;;;4897083;29;20207;-79
2022/05/19 04:36:26;;;;;;;3.13;2.75;;;;;;;;;;4913608;29;20620;-77
2022/05/19 04:38:51;;;;;;;2.83;2.60;;;;;;;;;;4913084;29;20095;-78
2022/05/19 04:41:17;;;;;;;3.35;3.15;;;;;;;;;;4913327;29;20044;-78
2022/05/19 04:43:43;;;;;;;2.13;2.03;;;;;;;;;;4894173;29;20084;-78
2022/05/19 04:46:09;;;;;;;3.47;2.58;;;;;;;;;;4913148;29;20048;-79
2022/05/19 04:48:35;;;;;;;2.47;2.30;;;;;;;;;;4881422;29;20048;-78
2022/05/19 04:51:01;;;;;;;3.08;2.53;;;;;;;;;;4914873;29;20103;-79
2022/05/19 04:53:28;;;;;;;4.60;2.58;;;;;;;;;;4897519;29;20071;-79
2022/05/19 04:55:53;;;;;;;2.58;2.47;;;;;;;;;;4913683;29;20083;-80
2022/05/19 04:58:19;;;;;;;3.35;2.65;;;;;;;;;;4897024;29;20048;-79
2022/05/19 05:00:48;;;;;;;3.97;2.55;;;;;;;;;;4900630;29;20055;-76
2022/05/19 05:03:14;;;;;;;2.33;2.22;;;;;;;;;;4907314;29;20244;-75
2022/05/19 05:05:40;;;;;;;3.85;2.70;;;;;;;;;;4910403;29;20044;-75
2022/05/19 05:08:06;;;;;;;3.72;2.08;;;;;;;;;;4895881;29;20067;-75
2022/05/19 05:10:32;;;;;;;3.03;2.42;;;;;;;;;;4878696;29;20055;-75
2022/05/19 05:13:03;;;;;;;2.85;2.13;;;;;;;;;;4908285;29;20040;-75
2022/05/19 05:15:29;;;;;;;3.10;2.90;;;;;;;;;;4910890;29;20056;-75
2022/05/19 05:17:56;;;;;;;3.03;2.70;;;;;;;;;;4910766;29;20358;-75
2022/05/19 05:20:23;;;;;;;2.30;2.03;;;;;;;;;;4908111;29;20076;-77
2022/05/19 05:22:48;;;;;;;2.30;2.10;;;;;;;;;;4910916;29;20186;-78
2022/05/19 05:25:14;;;;;;;2.47;2.38;;;;;;;;;;4910806;29;20267;-77
2022/05/19 05:27:41;;;;;;;2.42;1.95;;;;;;;;;;4893845;29;20191;-76
2022/05/19 05:30:07;;;;;;;2.70;2.60;;;;;;;;;;4907923;29;21020;-77
2022/05/19 05:32:33;;;;;;;3.80;2.90;;;;;;;;;;4911222;29;20495;-76
2022/05/19 05:34:59;;;;;;;2.72;2.53;;;;;;;;;;4910426;29;20048;-77
2022/05/19 05:37:25;;;;;;;6.70;3.60;;;;;;;;;;4910977;29;20068;-77
2022/05/19 05:39:50;;;;;;;3.42;3.17;;;;;;;;;;4910771;29;20044;-80
2022/05/19 05:42:16;;;;;;;5.07;2.90;;;;;;;;;;4911114;29;20036;-79
2022/05/19 05:44:42;;;;;;;5.07;3.20;;;;;;;;;;4888726;29;20049;-80
2022/05/19 05:47:08;;;;;;;3.58;3.10;;;;;;;;;;4911472;29;20025;-81
2022/05/19 05:49:34;;;;;;;3.65;2.85;;;;;;;;;;4900958;29;20087;-80
2022/05/19 05:52:00;;;;;;;5.65;3.05;;;;;;;;;;4911063;29;20028;-80
2022/05/19 05:54:26;;;;;;;3.38;3.08;;;;;;;;;;4910932;29;20052;-82
2022/05/19 05:56:52;;;;;;;3.05;2.38;;;;;;;;;;4891738;29;20162;-81
2022/05/19 05:59:18;;;;;;;2.78;2.67;;;;;;;;;;4898457;29;20055;-82
2022/05/19 06:01:44;;;;;;;3.60;3.30;;;;;;;;;;4915533;29;20511;-82
2022/05/19 06:04:10;;;;;;;5.07;2.70;;;;;;;;;;4916745;29;20108;-82
2022/05/19 06:06:36;;;;;;;3.20;3.00;;;;;;;;;;4919463;29;20060;-81
2022/05/19 06:09:02;;;;;;;3.42;3.22;;;;;;;;;;4898245;29;20116;-82
2022/05/19 06:11:28;;;;;;;4.18;3.10;;;;;;;;;;4919466;29;20519;-82
2022/05/19 06:13:53;;;;;;;4.80;3.70;;;;;;;;;;4919903;29;20051;-83
2022/05/19 06:16:19;;;;;;;5.35;4.90;;;;;;;;;;4917720;29;20804;-76
2022/05/19 06:18:45;;;;;;;3.53;3.22;;;;;;;;;;4913679;29;20040;-76
2022/05/19 06:21:11;;;;;;;2.80;2.63;;;;;;;;;;4914164;29;20112;-77
2022/05/19 06:23:37;;;;;;;3.45;2.45;;;;;;;;;;4913581;29;20048;-76
2022/05/19 06:26:03;;;;;;;3.72;3.30;;;;;;;;;;4896766;29;20127;-75
2022/05/19 06:28:29;;;;;;;3.75;3.50;;;;;;;;;;4905108;29;20040;-78
2022/05/19 06:30:55;;;;;;;3.80;2.90;;;;;;;;;;4896963;29;20482;-77
2022/05/19 06:33:22;;;;;;;3.22;2.75;;;;;;;;;;4913099;29;20044;-75
2022/05/19 06:35:48;;;;;;;3.78;3.50;;;;;;;;;;4911643;29;20040;-78
2022/05/19 06:38:14;;;;;;;5.18;3.20;;;;;;;;;;4913891;29;20052;-78
2022/05/19 06:40:41;;;;;;;3.50;3.25;;;;;;;;;;4913331;29;20503;-79
2022/05/19 06:43:08;;;;;;;4.22;3.75;;;;;;;;;;4913660;29;20059;-78
2022/05/19 06:45:34;;;;;;;5.13;3.47;;;;;;;;;;4913418;29;20151;-78
2022/05/19 06:47:59;;;;;;;4.40;3.03;;;;;;;;;;4912519;29;20131;-79
2022/05/19 06:50:25;;;;;;;3.97;3.47;;;;;;;;;;4896049;29;20503;-79
2022/05/19 06:52:52;;;;;;;4.53;2.70;;;;;;;;;;4896410;29;20040;-79
2022/05/19 06:55:19;;;;;;;3.70;2.70;;;;;;;;;;4912947;29;20336;-79
2022/05/19 06:57:44;;;;;;;7.05;5.25;;;;;;;;;;4913527;29;20051;-77
2022/05/19 07:00:12;;;;;;;5.22;3.38;;;;;;;;;;4874792;29;20045;-77
2022/05/19 07:02:38;;;;;;;5.78;3.95;;;;;;;;;;4911351;29;20387;-75
2022/05/19 07:05:05;;;;;;;5.95;5.10;;;;;;;;;;4886386;29;20658;-76
2022/05/19 07:07:31;;;;;;;10.15;5.55;;;;;;;;;;4894678;29;20058;-77
2022/05/19 07:09:57;;;;;;;7.45;4.38;;;;;;;;;;4911468;29;20048;-76
2022/05/19 07:12:23;;;;;;;5.10;4.50;;;;;;;;;;4912765;29;20039;-75
2022/05/19 07:14:49;;;;;;;5.47;5.07;;;;;;;;;;4912641;29;20054;-76
2022/05/19 07:17:15;;;;;;;5.15;4.63;;;;;;;;;;4912925;29;20071;-76
2022/05/19 07:22:29;;;;;;;6.75;5.00;;;;;;;;;;4909085;29;20078;-78
2022/05/19 07:24:55;;;;;;;6.28;5.78;;;;;;;;;;4912127;29;20051;-77
2022/05/19 07:27:21;;;;;;;6.05;5.05;;;;;;;;;;4913430;29;20044;-78
2022/05/19 07:29:47;;;;;;;6.97;5.82;;;;;;;;;;4914600;29;20044;-77
2022/05/19 07:32:13;;;;;;;8.43;7.53;;;;;;;;;;4924711;29;20108;-77
2022/05/19 07:34:40;;;;;;;10.90;6.60;;;;;;;;;;4925184;29;20126;-76
2022/05/19 07:37:06;;;;;;;7.43;5.72;;;;;;;;;;4895100;29;20055;-77
2022/05/19 07:39:32;;;;;;;8.40;5.40;;;;;;;;;;4895881;29;20036;-77
2022/05/19 07:41:57;;;;;;;6.30;5.70;;;;;;;;;;4912255;29;20187;-74
2022/05/19 07:44:24;;;;;;;10.85;5.97;;;;;;;;;;4912623;29;20067;-74
2022/05/19 07:46:50;;;;;;;7.03;6.35;;;;;;;;;;4912196;29;20043;-74
2022/05/19 07:49:16;;;;;;;12.05;8.02;;;;;;;;;;4912528;29;20040;-73
2022/05/19 07:51:42;;;;;;;6.47;5.80;;;;;;;;;;4919297;29;20044;-74
2022/05/19 07:54:10;;;;;;;8.40;6.68;;;;;;;;;;4899727;29;20067;-74
2022/05/19 07:56:36;;;;;;;10.55;6.25;;;;;;;;;;4911983;29;20048;-74
2022/05/19 07:59:02;;;;;;;8.38;5.88;;;;;;;;;;4888244;29;20032;-79
2022/05/19 08:01:29;;;;;;;6.13;5.53;;;;;;;;;;4912221;29;20043;-75
2022/05/19 08:03:56;;;;;;;8.05;5.65;;;;;;;;;;4870327;29;20101;-75
2022/05/19 08:06:22;;;;;;;10.25;5.15;;;;;;;;;;4895177;29;20598;-76
2022/05/19 08:08:48;;;;;;;6.28;5.68;;;;;;;;;;4894785;29;20109;-75
2022/05/19 08:11:14;;;;;;;5.88;5.38;;;;;;;;;;4912379;29;20074;-75
2022/05/19 08:16:24;;;;;;;11.73;6.32;;;;;;;;;;4910083;29;20128;-75
2022/05/19 08:18:50;;;;;;;11.27;6.00;;;;;;;;;;4911603;29;20048;-75
2022/05/19 08:21:17;;;;;;;7.30;5.47;;;;;;;;;;4911777;29;20048;-75
2022/05/19 08:23:45;;;;;;;6.93;5.88;;;;;;;;;;4904249;29;20055;-75
2022/05/19 08:26:11;;;;;;;8.18;5.35;;;;;;;;;;4912266;29;20179;-76
2022/05/19 08:28:40;;;;;;;10.88;5.43;;;;;;;;;;4912629;29;20036;-75
2022/05/19 08:31:07;;;;;;;8.23;5.65;;;;;;;;;;4911625;29;20055;-78
2022/05/19 08:33:35;;;;;;;9.73;6.00;;;;;;;;;;4911840;29;20052;-75
2022/05/19 08:36:02;;;;;;;6.38;5.78;;;;;;;;;;4911121;29;20472;-74
2022/05/19 08:38:27;;;;;;;8.13;4.90;;;;;;;;;;4911904;29;20051;-75
2022/05/19 08:40:55;;;;;;;8.05;4.85;;;;;;;;;;4910892;29;20028;-76
2022/05/19 08:43:23;;;;;;;5.90;4.40;;;;;;;;;;4894675;29;20052;-75
2022/05/19 08:45:50;;;;;;;5.30;4.85;;;;;;;;;;4884334;29;20108;-74
2022/05/19 08:48:19;;;;;;;4.03;3.72;;;;;;;;;;4911531;29;20040;-74
2022/05/19 08:51:00;;;;;;;5.40;5.00;;;;;;;;;;4910574;29;20047;-74
2022/05/19 08:53:30;;;;;;;7.18;5.05;;;;;;;;;;4911194;29;20480;-75
2022/05/19 08:56:15;;;;;;;5.63;5.13;;;;;;;;;;4894134;29;20043;-73
2022/05/19 08:58:46;;;;;;;5.45;4.85;;;;;;;;;;4911251;29;20288;-75
2022/05/19 09:01:21;;;;;;;4.68;3.15;;;;;;;;;;4911001;29;20033;-76
2022/05/19 09:03:53;;;;;;;5.22;4.63;;;;;;;;;;4890969;29;20036;-76
2022/05/19 09:06:19;;;;;;;4.70;4.38;;;;;;;;;;4910643;29;20063;-75
2022/05/19 09:09:04;;;;;;;4.20;3.80;;;;;;;;;;4911087;29;20040;-72
2022/05/19 09:11:33;;;;;;;7.15;4.50;;;;;;;;;;4911247;29;20542;-75
2022/05/19 09:14:03;;;;;;;7.53;4.47;;;;;;;;;;4911246;29;20039;-74
2022/05/19 09:16:33;;;;;;;4.47;4.05;;;;;;;;;;4899198;29;20431;-75
2022/05/19 09:19:10;;;;;;;6.15;4.13;;;;;;;;;;4870776;29;20032;-75
2022/05/19 09:21:36;;;;;;;3.42;3.13;;;;;;;;;;4894212;29;20052;-72
2022/05/19 09:24:03;;;;;;;2.20;2.10;;;;;;;;;;4910975;29;20066;-72
2022/05/19 09:26:41;;;;;;;12.70;4.00;;;;;;;;;;4910989;29;20135;-75
2022/05/19 09:29:08;;;;;;;4.05;3.75;;;;;;;;;;4908975;29;20418;-83
2022/05/19 09:31:39;;;;;;;3.75;3.40;;;;;;;;;;4873876;29;20511;-75
2022/05/19 09:34:06;;;;;;;5.45;3.63;;;;;;;;;;4897575;29;20373;-75
2022/05/19 09:36:38;;;;;;;3.75;3.45;;;;;;;;;;4915061;29;20058;-75
2022/05/19 09:39:05;;;;;;;5.63;4.25;;;;;;;;;;4914529;29;20040;-76
2022/05/19 09:41:35;;;;;;;6.80;4.53;;;;;;;;;;4911550;29;20044;-74
2022/05/19 09:44:02;;;;;;;5.22;3.92;;;;;;;;;;4913661;29;20040;-74
2022/05/19 09:46:31;;;;;;;4.63;4.10;;;;;;;;;;4914418;29;20056;-76
2022/05/19 09:49:01;;;;;;;8.00;4.60;;;;;;;;;;4914345;29;20032;-76
2022/05/19 09:51:38;;;;;;;11.25;4.40;;;;;;;;;;4912997;29;20044;-77
2022/05/19 09:54:04;;;;;;;4.90;4.10;;;;;;;;;;4912873;29;20087;-79
2022/05/19 09:56:38;;;;;;;4.70;4.10;;;;;;;;;;4903849;29;20060;-77
2022/05/19 09:59:06;;;;;;;6.65;5.07;;;;;;;;;;4913594;29;20156;-77
2022/05/19 10:01:35;;;;;;;5.30;4.20;;;;;;;;;;4897251;29;20414;-77
2022/05/19 10:04:01;;;;;;;5.13;4.80;;;;;;;;;;4912971;29;20032;-78
2022/05/19 10:06:39;;;;;;;7.40;4.45;;;;;;;;;;4913836;29;20055;-78
2022/05/19 10:09:07;;;;;;;6.90;3.83;;;;;;;;;;4911578;29;20071;-77
2022/05/19 10:11:33;;;;;;;4.63;4.30;;;;;;;;;;4913560;29;20043;-78
2022/05/19 10:14:02;;;;;;;11.05;4.40;;;;;;;;;;4914315;29;20127;-77
2022/05/19 10:16:31;;;;;;;5.32;3.95;;;;;;;;;;4911321;29;20052;-73
2022/05/19 10:19:04;;;;;;;6.43;3.08;;;;;;;;;;4911517;29;20036;-73
2022/05/19 10:21:33;;;;;;;3.60;3.22;;;;;;;;;;4912644;29;20048;-73
2022/05/19 10:24:06;;;;;;;3.58;3.28;;;;;;;;;;4916552;29;20036;-73
2022/05/19 10:26:50;;;;;;;3.30;3.00;;;;;;;;;;4913317;29;20056;-73
2022/05/19 10:32:06;;;;;;;3.97;2.83;;;;;;;;;;4912751;29;20072;-73
2022/05/19 10:34:32;;;;;;;5.88;3.53;;;;;;;;;;4895072;29;20048;-73
2022/05/19 10:37:01;;;;;;;2.88;2.67;;;;;;;;;;4912643;29;20055;-73
2022/05/19 10:39:30;;;;;;;2.03;1.75;;;;;;;;;;4913090;29;20040;-74
2022/05/19 10:42:06;;;;;;;2.80;2.60;;;;;;;;;;4912823;29;20437;-72
2022/05/19 10:44:34;;;;;;;3.50;2.80;;;;;;;;;;4911069;29;20569;-72
2022/05/19 10:47:10;;;;;;;3.35;3.05;;;;;;;;;;4886768;29;20116;-73
2022/05/19 10:49:46;;;;;;;3.50;2.92;;;;;;;;;;4912556;29;20573;-73
2022/05/19 10:52:18;;;;;;;3.40;3.10;;;;;;;;;;4913050;29;20130;-74
2022/05/19 10:54:49;;;;;;;2.72;2.53;;;;;;;;;;4895745;29;20068;-73
2022/05/19 10:57:34;;;;;;;4.68;2.80;;;;;;;;;;4894085;29;20079;-72
2022/05/19 11:00:19;;;;;;;1.98;1.88;;;;;;;;;;4906326;29;20060;-73
2022/05/19 11:03:15;;;;;;;4.72;3.00;;;;;;;;;;4879286;29;20050;-73
2022/05/19 11:05:46;;;;;;;3.15;2.92;;;;;;;;;;4828562;29;20089;-75
2022/05/19 11:08:32;;;;;;;2.50;2.30;;;;;;;;;;4912480;29;20040;-73
2022/05/19 11:10:58;;;;;;;2.90;2.60;;;;;;;;;;4912571;29;20051;-73
2022/05/19 11:13:51;;;;;;;5.10;1.88;;;;;;;;;;4914592;29;20047;-74
2022/05/19 11:16:24;;;;;;;1.40;1.35;;;;;;;;;;4906869;29;20094;-72
2022/05/19 11:19:08;;;;;;;2.38;2.28;;;;;;;;;;4892639;29;20055;-72
2022/05/19 11:21:55;;;;;;;2.30;2.20;;;;;;;;;;4911548;29;20040;-74
2022/05/19 11:24:23;;;;;;;3.03;2.28;;;;;;;;;;4903157;29;20067;-75
2022/05/19 11:27:08;;;;;;;3.67;2.58;;;;;;;;;;4913950;29;20139;-74
2022/05/19 11:29:42;;;;;;;3.60;2.50;;;;;;;;;;4896823;29;20052;-74
2022/05/19 11:32:12;;;;;;;2.70;2.15;;;;;;;;;;4883883;29;20547;-74
2022/05/19 11:34:58;;;;;;;2.55;2.13;;;;;;;;;;4894520;29;20096;-74
2022/05/19 11:37:30;;;;;;;6.68;3.03;;;;;;;;;;4893017;29;20064;-73
2022/05/19 11:40:13;;;;;;;2.80;2.60;;;;;;;;;;4894105;29;20043;-74
2022/05/19 11:42:41;;;;;;;2.80;2.60;;;;;;;;;;4894678;29;20096;-74
2022/05/19 11:45:08;;;;;;;2.97;2.25;;;;;;;;;;4878510;29;20037;-75
2022/05/19 11:56:06;;;;;;;2.17;1.80;;;;;;;;;;4894584;29;20052;-74
2022/05/19 11:58:34;;;;;;;2.92;2.72;;;;;;;;;;4878239;29;20455;-75
2022/05/19 12:01:07;;;;;;;3.33;2.05;;;;;;;;;;4893256;29;20037;-75
2022/05/19 12:03:36;;;;;;;3.55;2.30;;;;;;;;;;4878528;29;20532;-75
2022/05/19 12:06:03;;;;;;;4.00;2.47;;;;;;;;;;4894096;29;20089;-74
2022/05/19 12:08:48;;;;;;;5.80;2.28;;;;;;;;;;4878027;29;20547;-74
2022/05/19 12:11:18;;;;;;;2.65;2.25;;;;;;;;;;4888787;29;20073;-76
2022/05/19 12:13:48;;;;;;;4.80;2.53;;;;;;;;;;4913508;29;20052;-75
2022/05/19 12:16:15;;;;;;;4.32;2.38;;;;;;;;;;4880549;29;20625;-75
2022/05/19 12:18:46;;;;;;;2.78;2.47;;;;;;;;;;4896563;29;20040;-75
2022/05/19 12:21:16;;;;;;;2.85;2.22;;;;;;;;;;4913053;29;20194;-75
2022/05/19 12:23:42;;;;;;;2.85;2.30;;;;;;;;;;4896664;29;20107;-76
2022/05/19 12:26:09;;;;;;;6.90;2.20;;;;;;;;;;4912850;29;20507;-75
2022/05/19 12:28:40;;;;;;;3.45;2.38;;;;;;;;;;4913237;29;20059;-75
2022/05/19 12:34:02;;;;;;;2.72;2.33;;;;;;;;;;4898531;29;20043;-75
2022/05/19 12:36:31;;;;;;;2.20;2.00;;;;;;;;;;4896015;29;20424;-75
2022/05/19 12:39:21;;;;;;;2.05;1.95;;;;;;;;;;4896091;29;20359;-74
2022/05/19 12:41:48;;;;;;;2.45;2.28;;;;;;;;;;4901170;29;20044;-75
2022/05/19 12:44:29;;;;;;;2.00;1.85;;;;;;;;;;4912906;29;20044;-75
2022/05/19 12:47:08;;;;;;;2.13;2.03;;;;;;;;;;4912952;29;20104;-75
2022/05/19 12:49:36;;;;;;;2.53;1.55;;;;;;;;;;4896126;29;20044;-75
2022/05/19 12:52:08;;;;;;;2.45;2.25;;;;;;;;;;4912595;29;20047;-75
2022/05/19 12:54:36;;;;;;;2.60;2.40;;;;;;;;;;4896418;29;20076;-75
2022/05/19 12:57:07;;;;;;;4.78;2.40;;;;;;;;;;4895594;29;20136;-75
2022/05/19 12:59:37;;;;;;;1.95;1.80;;;;;;;;;;4913144;29;20055;-76
2022/05/19 13:02:26;;;;;;;2.33;2.13;;;;;;;;;;4912576;29;20107;-75
2022/05/19 13:04:54;;;;;;;3.03;2.03;;;;;;;;;;4876377;29;20123;-75
2022/05/19 13:07:32;;;;;;;3.00;2.10;;;;;;;;;;4912313;29;20071;-75
2022/05/19 13:10:01;;;;;;;1.85;1.75;;;;;;;;;;4895600;29;20543;-74
2022/05/19 13:12:30;;;;;;;2.47;2.00;;;;;;;;;;4912544;29;20404;-74
2022/05/19 13:14:58;;;;;;;2.17;2.03;;;;;;;;;;4912515;29;20044;-74
2022/05/19 13:17:34;;;;;;;3.28;1.80;;;;;;;;;;4895570;29;20103;-75
2022/05/19 13:20:01;;;;;;;6.90;1.85;;;;;;;;;;4895331;29;20041;-75
2022/05/19 13:22:29;;;;;;;5.47;2.13;;;;;;;;;;4880222;29;20418;-75
2022/05/19 13:24:55;;;;;;;2.20;2.00;;;;;;;;;;4895526;29;20442;-75
2022/05/19 13:30:20;;;;;;;2.28;2.10;;;;;;;;;;4913075;29;20056;-75
2022/05/19 13:32:46;;;;;;;2.00;1.90;;;;;;;;;;4880475;29;20054;-74
2022/05/19 13:35:16;;;;;;;7.45;2.05;;;;;;;;;;4895388;29;20044;-74
2022/05/19 13:37:43;;;;;;;2.20;2.05;;;;;;;;;;4912521;29;20060;-74
2022/05/19 13:40:12;;;;;;;5.00;2.50;;;;;;;;;;4912023;29;20036;-75
2022/05/19 13:42:38;;;;;;;3.97;2.67;;;;;;;;;;4912612;29;20511;-74
2022/05/19 13:45:04;;;;;;;2.55;2.10;;;;;;;;;;4912068;29;20151;-75
2022/05/19 13:47:30;;;;;;;2.25;1.98;;;;;;;;;;4895721;29;20130;-74
2022/05/19 13:49:59;;;;;;;2.80;2.53;;;;;;;;;;4912074;29;20086;-73
2022/05/19 13:52:28;;;;;;;2.85;2.53;;;;;;;;;;4895347;29;20485;-74
2022/05/19 13:54:53;;;;;;;3.50;2.88;;;;;;;;;;4879696;29;20048;-73
2022/05/19 13:57:19;;;;;;;2.70;2.50;;;;;;;;;;4911907;29;20074;-73
2022/05/19 13:59:45;;;;;;;8.10;2.67;;;;;;;;;;4912291;29;20036;-73
2022/05/19 14:02:14;;;;;;;3.22;2.92;;;;;;;;;;4894699;29;20407;-74
2022/05/19 14:04:41;;;;;;;3.65;3.35;;;;;;;;;;4912440;29;20040;-73
2022/05/19 14:07:07;;;;;;;2.85;2.65;;;;;;;;;;4894518;29;20147;-73
2022/05/19 14:09:54;;;;;;;6.45;3.08;;;;;;;;;;4895184;29;20044;-73
2022/05/19 14:12:20;;;;;;;2.65;2.45;;;;;;;;;;4911987;29;20055;-73
2022/05/19 14:14:47;;;;;;;3.83;2.45;;;;;;;;;;4912311;29;20041;-73
2022/05/19 14:17:12;;;;;;;2.63;2.25;;;;;;;;;;4913583;29;20143;-74
2022/05/19 14:19:39;;;;;;;2.67;2.50;;;;;;;;;;4915581;29;20139;-74
2022/05/19 14:22:05;;;;;;;2.30;2.20;;;;;;;;;;4914663;29;20138;-74
2022/05/19 14:24:31;;;;;;;2.35;2.20;;;;;;;;;;4915359;29;20136;-74
2022/05/19 14:27:00;;;;;;;2.05;1.95;;;;;;;;;;4897649;29;20511;-74
2022/05/19 14:29:27;;;;;;;4.90;2.53;;;;;;;;;;4914844;29;20036;-75
2022/05/19 14:31:56;;;;;;;2.85;2.50;;;;;;;;;;4898117;29;20043;-74
2022/05/19 14:34:24;;;;;;;4.40;2.65;;;;;;;;;;4915285;29;20135;-74
2022/05/19 14:36:52;;;;;;;3.47;3.10;;;;;;;;;;4915459;29;20060;-75
2022/05/19 14:39:25;;;;;;;3.58;2.90;;;;;;;;;;4915384;29;20048;-74
2022/05/19 14:44:40;;;;;;;2.90;2.70;;;;;;;;;;4918656;29;20558;-74
2022/05/19 14:47:20;;;;;;;2.80;2.35;;;;;;;;;;4923624;29;20051;-73
2022/05/19 14:49:47;;;;;;;5.50;2.60;;;;;;;;;;4921980;29;20052;-74
2022/05/19 14:52:13;;;;;;;2.30;2.20;;;;;;;;;;4917410;29;20051;-74
2022/05/19 14:54:39;;;;;;;3.22;2.72;;;;;;;;;;4915014;29;20059;-73
2022/05/19 14:57:07;;;;;;;2.90;2.70;;;;;;;;;;4900702;29;20056;-74
2022/05/19 14:59:33;;;;;;;4.35;3.22;;;;;;;;;;4914950;29;20040;-74
2022/05/19 15:01:59;;;;;;;3.60;3.30;;;;;;;;;;4914718;29;20063;-73
2022/05/19 15:04:25;;;;;;;3.30;3.05;;;;;;;;;;4897877;29;20043;-73
2022/05/19 15:06:51;;;;;;;3.65;2.92;;;;;;;;;;4914490;29;20054;-74
2022/05/19 15:09:18;;;;;;;3.90;3.60;;;;;;;;;;4914419;29;20052;-74
2022/05/19 15:11:44;;;;;;;3.58;3.28;;;;;;;;;;4897578;29;20083;-73
2022/05/19 15:14:10;;;;;;;5.25;3.22;;;;;;;;;;4914532;29;20131;-73
2022/05/19 15:16:36;;;;;;;5.65;4.22;;;;;;;;;;4914476;29;20138;-73